Talmaciu, Romania
Current Conditions -  °F | °C
As of 10:00 PM on Saturday 25 Oct 2014 (Local Time) from LRSB Reporting Station
Broken Clouds Broken Clouds  
Wind Chill: 34°   Ceiling: 3800
Heat Index: 39°   Visibility: 6mi
Dew Point: 18°   Wind: 7mph
Humidity: 42%   Direction: 110°ESE
Pressure: 30.3"   Gusts: NA
Location:  45.68°N, 24.27°E
Report Text: LRSB 251900Z 11006KT 9999 BKN038 04/M08 Q1026
Loading
Personal Weather Stations






























Interactive Weather Map
Tropical Storm Tracking
New forecast layout! Learn more

10-Day Weather Forecast

Advertisements
Track Severe Weather on mobile